createdAt,value
2018-11-03T00:00:07.395Z,20.93
2018-11-03T00:02:36.502Z,22.33
2018-11-03T00:05:05.625Z,21.40
2018-11-03T00:07:34.730Z,22.20
2018-11-03T00:10:03.835Z,22.23
2018-11-03T00:12:32.829Z,19.63
2018-11-03T00:15:01.868Z,20.70
2018-11-03T00:17:31.018Z,20.50
2018-11-03T00:20:00.062Z,22.13
2018-11-03T00:22:29.143Z,22.27
2018-11-03T00:24:58.266Z,22.20
2018-11-03T00:27:27.367Z,22.83
2018-11-03T00:29:56.705Z,21.83
2018-11-03T00:32:26.043Z,22.67
2018-11-03T00:34:55.163Z,23.20
2018-11-03T00:37:24.281Z,23.00
2018-11-03T00:39:53.343Z,25.03
2018-11-03T00:42:22.411Z,22.27
2018-11-03T00:44:51.519Z,23.73
2018-11-03T00:47:20.630Z,22.73
2018-11-03T00:49:49.774Z,23.67
2018-11-03T00:52:18.815Z,24.90
2018-11-03T00:54:47.841Z,24.53
2018-11-03T00:57:16.949Z,24.23
2018-11-03T00:59:45.977Z,24.07
2018-11-03T01:02:15.079Z,22.97
2018-11-03T01:04:44.198Z,22.70
2018-11-03T01:07:13.276Z,23.00
2018-11-03T01:09:42.459Z,23.70
2018-11-03T01:12:11.557Z,23.30
2018-11-03T01:14:40.647Z,20.53
2018-11-03T01:17:09.833Z,23.60
2018-11-03T01:19:38.836Z,23.63
2018-11-03T01:22:07.926Z,23.57
2018-11-03T01:24:37.055Z,23.03
2018-11-03T01:27:06.451Z,23.13
2018-11-03T01:29:35.516Z,22.73
2018-11-03T01:32:04.614Z,24.43
2018-11-03T01:34:33.744Z,24.00
2018-11-03T01:37:02.827Z,24.33
2018-11-03T01:39:31.901Z,22.40
2018-11-03T01:42:01.102Z,24.20
2018-11-03T01:44:30.202Z,25.97
2018-11-03T01:46:59.338Z,23.90
2018-11-03T01:49:28.418Z,25.27
2018-11-03T01:51:57.477Z,25.40
2018-11-03T01:54:26.786Z,25.53
2018-11-03T01:56:55.797Z,26.03
2018-11-03T01:59:24.904Z,25.90
2018-11-03T02:01:53.950Z,26.13
2018-11-03T02:04:23.052Z,24.67
2018-11-03T02:06:52.058Z,24.60
2018-11-03T02:09:21.169Z,24.30
2018-11-03T02:11:50.698Z,24.00
2018-11-03T02:14:19.708Z,25.10
2018-11-03T02:16:48.806Z,24.47
2018-11-03T02:19:17.852Z,24.37
2018-11-03T02:21:46.872Z,25.13
2018-11-03T02:24:15.942Z,24.90
2018-11-03T02:26:44.946Z,24.67
2018-11-03T02:29:14.041Z,25.20
2018-11-03T02:31:43.108Z,24.27
2018-11-03T02:34:12.770Z,24.53
2018-11-03T02:36:41.818Z,24.40
2018-11-03T02:39:11.100Z,23.63
2018-11-03T02:41:40.226Z,23.20
2018-11-03T02:44:09.274Z,22.90
2018-11-03T02:46:38.317Z,23.10
2018-11-03T02:49:07.593Z,24.13
2018-11-03T02:51:36.591Z,24.33
2018-11-03T02:54:06.174Z,24.03
2018-11-03T02:56:35.209Z,25.27
2018-11-03T02:59:04.307Z,24.00
2018-11-03T03:01:33.360Z,24.67
2018-11-03T03:04:02.590Z,23.60
2018-11-03T03:06:31.686Z,25.83
2018-11-03T03:09:00.776Z,22.73
2018-11-03T03:11:29.852Z,21.37
2018-11-03T03:13:58.966Z,23.53
2018-11-03T03:16:28.061Z,23.00
2018-11-03T03:18:57.149Z,23.43
2018-11-03T03:21:26.233Z,24.47
2018-11-03T03:23:55.338Z,25.03
2018-11-03T03:26:24.421Z,25.27
2018-11-03T03:28:53.530Z,25.60
2018-11-03T03:31:22.603Z,24.53
2018-11-03T03:33:51.698Z,23.83
2018-11-03T03:36:20.777Z,24.83
2018-11-03T03:38:49.887Z,25.20
2018-11-03T03:41:18.953Z,23.07
2018-11-03T03:43:49.005Z,24.40
2018-11-03T03:46:18.132Z,24.23
2018-11-03T03:48:47.235Z,23.97
2018-11-03T03:51:16.287Z,24.87
2018-11-03T03:53:45.403Z,24.57
2018-11-03T03:56:14.488Z,23.10
2018-11-03T03:58:43.687Z,23.77
2018-11-03T04:01:12.779Z,23.97
2018-11-03T04:03:41.956Z,25.00
2018-11-03T04:06:11.089Z,24.43
2018-11-03T04:08:40.357Z,23.40
2018-11-03T04:11:09.555Z,24.03
2018-11-03T04:13:38.663Z,25.63
2018-11-03T04:16:07.692Z,23.17
2018-11-03T04:18:36.768Z,24.73
2018-11-03T04:21:06.061Z,25.53
2018-11-03T04:23:35.131Z,26.20
2018-11-03T04:26:04.261Z,25.23
2018-11-03T04:28:33.353Z,25.47
2018-11-03T04:31:02.433Z,24.37
2018-11-03T04:33:31.485Z,27.47
2018-11-03T04:36:00.513Z,25.27
2018-11-03T04:38:29.543Z,25.37
2018-11-03T04:40:58.655Z,24.07
2018-11-03T04:43:27.693Z,24.73
2018-11-03T04:45:56.782Z,25.33
2018-11-03T04:48:25.912Z,25.20
2018-11-03T04:50:55.011Z,26.17
2018-11-03T04:53:24.067Z,26.43
2018-11-03T04:55:53.212Z,24.70
2018-11-03T04:58:22.264Z,24.17
2018-11-03T05:00:51.381Z,25.53
2018-11-03T05:03:20.435Z,25.03
2018-11-03T05:05:49.567Z,27.23
2018-11-03T05:08:18.655Z,26.53
2018-11-03T05:10:47.703Z,27.10
2018-11-03T05:13:16.812Z,24.07
2018-11-03T05:15:45.900Z,24.83
2018-11-03T05:18:15.015Z,24.60
2018-11-03T05:20:44.063Z,24.33
2018-11-03T05:23:13.081Z,24.70
2018-11-03T05:25:42.071Z,24.87
2018-11-03T05:28:11.088Z,26.10
2018-11-03T05:30:40.262Z,25.80
2018-11-03T05:33:09.356Z,26.43
2018-11-03T05:35:38.654Z,28.03
2018-11-03T05:38:07.960Z,27.03
2018-11-03T05:40:36.986Z,24.40
2018-11-03T05:43:06.078Z,25.30
2018-11-03T05:45:35.166Z,22.70
2018-11-03T05:48:04.344Z,26.37
2018-11-03T05:50:33.486Z,24.20
2018-11-03T05:53:02.547Z,25.23
2018-11-03T05:55:31.654Z,25.73
2018-11-03T05:58:00.726Z,24.93
2018-11-03T06:00:29.831Z,24.40
2018-11-03T06:02:59.620Z,25.40
2018-11-03T06:05:28.770Z,24.33
2018-11-03T06:07:57.848Z,23.83
2018-11-03T06:10:26.942Z,25.83
2018-11-03T06:12:55.988Z,26.13
2018-11-03T06:15:25.085Z,25.63
2018-11-03T06:17:54.149Z,23.60
2018-11-03T06:20:23.218Z,24.30
2018-11-03T06:22:52.276Z,26.60
2018-11-03T06:25:21.450Z,25.20
2018-11-03T06:27:50.477Z,25.30
2018-11-03T06:30:19.648Z,24.50
2018-11-03T06:32:48.696Z,25.73
2018-11-03T06:35:17.892Z,25.23
2018-11-03T06:37:46.911Z,27.30
2018-11-03T06:40:15.994Z,26.60
2018-11-03T06:42:45.097Z,25.73
2018-11-03T06:45:14.082Z,25.83
2018-11-03T06:47:43.127Z,24.97
2018-11-03T06:50:12.258Z,25.43
2018-11-03T06:52:41.269Z,25.40
2018-11-03T06:55:10.338Z,27.00
2018-11-03T06:57:39.427Z,26.80
2018-11-03T07:00:09.229Z,25.70
2018-11-03T07:02:38.377Z,26.27
2018-11-03T07:05:08.181Z,27.27
2018-11-03T07:07:37.253Z,26.00
2018-11-03T07:10:07.571Z,24.47
2018-11-03T07:12:37.070Z,24.97
2018-11-03T07:15:06.167Z,25.30
2018-11-03T07:17:35.757Z,25.40
2018-11-03T07:20:05.266Z,26.27
2018-11-03T07:22:34.461Z,25.73
2018-11-03T07:25:03.471Z,26.77
2018-11-03T07:27:32.617Z,26.63
2018-11-03T07:30:01.658Z,25.53
2018-11-03T07:32:31.235Z,28.90
2018-11-03T07:35:00.451Z,26.83
2018-11-03T07:37:29.547Z,28.67
2018-11-03T07:39:58.668Z,28.67
2018-11-03T07:42:27.977Z,27.20
2018-11-03T07:44:57.050Z,27.80
2018-11-03T07:47:26.103Z,28.30
2018-11-03T07:49:55.284Z,27.00
2018-11-03T07:52:24.310Z,28.07
2018-11-03T07:54:53.548Z,28.30
2018-11-03T07:57:22.692Z,28.17
2018-11-03T07:59:51.758Z,28.90
2018-11-03T08:02:20.914Z,30.13
2018-11-03T08:04:50.063Z,28.47
2018-11-03T08:07:19.118Z,28.90
2018-11-03T08:09:48.202Z,29.20
2018-11-03T08:12:17.389Z,27.83
2018-11-03T08:14:46.484Z,27.33
2018-11-03T08:17:15.606Z,28.40
2018-11-03T08:19:44.680Z,28.77
2018-11-03T08:22:13.769Z,27.50
2018-11-03T08:24:42.887Z,28.67
2018-11-03T08:27:11.952Z,29.97
2018-11-03T08:29:41.078Z,26.67
2018-11-03T08:32:10.190Z,28.57
2018-11-03T08:34:39.243Z,28.47
2018-11-03T08:37:08.338Z,29.00
2018-11-03T08:39:37.588Z,29.63
2018-11-03T08:42:06.590Z,29.27
2018-11-03T08:44:35.616Z,28.83
2018-11-03T08:47:05.256Z,30.43
2018-11-03T08:49:34.993Z,29.77
2018-11-03T08:52:04.282Z,30.03
2018-11-03T08:54:33.330Z,31.83
2018-11-03T08:57:02.438Z,31.60
2018-11-03T08:59:31.523Z,29.60
2018-11-03T09:02:00.662Z,31.43
2018-11-03T09:04:30.037Z,31.87
2018-11-03T09:06:59.243Z,30.37
2018-11-03T09:09:29.131Z,32.53
2018-11-03T09:11:58.212Z,32.87
2018-11-03T09:14:27.361Z,29.37
2018-11-03T09:16:56.490Z,31.10
2018-11-03T09:19:25.579Z,30.73
2018-11-03T09:21:54.848Z,29.60
2018-11-03T09:24:24.434Z,30.97
2018-11-03T09:26:53.445Z,30.63
2018-11-03T09:29:22.435Z,31.50
2018-11-03T09:31:51.870Z,30.97
2018-11-03T09:34:20.999Z,29.97
2018-11-03T09:36:50.100Z,34.20
2018-11-03T09:39:19.310Z,31.23
2018-11-03T09:41:48.289Z,30.30
2018-11-03T09:44:17.423Z,32.20
2018-11-03T09:46:46.461Z,33.27
2018-11-03T09:49:15.487Z,30.93
2018-11-03T09:51:44.609Z,31.57
2018-11-03T09:54:13.690Z,31.13
2018-11-03T09:56:43.656Z,31.83
2018-11-03T09:59:12.619Z,33.33
2018-11-03T10:01:41.638Z,30.97
2018-11-03T10:04:10.757Z,31.03
2018-11-03T10:06:39.957Z,31.60
2018-11-03T10:09:09.130Z,32.63
2018-11-03T10:11:38.130Z,31.90
2018-11-03T10:14:07.258Z,30.03
2018-11-03T10:16:36.325Z,29.63
2018-11-03T10:19:08.413Z,29.63
2018-11-03T10:21:37.585Z,28.63
2018-11-03T10:24:06.692Z,29.40
2018-11-03T10:26:35.821Z,28.10
2018-11-03T10:29:04.941Z,25.97
2018-11-03T10:31:34.013Z,24.33
2018-11-03T10:34:03.137Z,24.23
2018-11-03T10:36:32.180Z,25.40
2018-11-03T10:39:01.236Z,26.30
2018-11-03T10:41:30.352Z,25.80
2018-11-03T10:43:59.407Z,24.80
2018-11-03T10:46:28.547Z,23.97
2018-11-03T10:48:57.617Z,23.30
2018-11-03T10:51:26.649Z,23.27
2018-11-03T10:53:55.741Z,22.60
2018-11-03T10:56:24.813Z,22.63
2018-11-03T10:58:53.981Z,21.57
2018-11-03T11:01:28.335Z,18.40
2018-11-03T11:04:02.983Z,20.57
2018-11-03T11:06:37.456Z,18.43
2018-11-03T11:09:12.464Z,20.03
2018-11-03T11:11:47.136Z,18.63
2018-11-03T11:14:16.835Z,18.13
2018-11-03T11:16:45.812Z,17.30
2018-11-03T11:19:14.814Z,17.77
2018-11-03T11:21:43.972Z,16.63
2018-11-03T11:24:13.860Z,16.77
2018-11-03T11:26:42.754Z,15.90
2018-11-03T11:29:11.934Z,15.60
2018-11-03T11:31:41.766Z,14.67
2018-11-03T11:34:10.936Z,14.17
2018-11-03T11:36:40.054Z,12.23
2018-11-03T11:39:09.213Z,10.87
2018-11-03T11:41:38.330Z,10.10
2018-11-03T11:44:07.607Z,10.57
2018-11-03T11:46:36.714Z,10.97
2018-11-03T11:49:06.019Z,11.53
2018-11-03T11:51:35.067Z,13.03
2018-11-03T11:54:04.339Z,12.43
2018-11-03T11:56:33.404Z,12.27
2018-11-03T11:59:02.470Z,11.70
2018-11-03T12:01:31.500Z,12.90
2018-11-03T12:04:00.607Z,11.80
2018-11-03T12:06:29.758Z,11.00
2018-11-03T12:08:58.802Z,10.27
2018-11-03T12:11:27.894Z,11.27
2018-11-03T12:13:56.930Z,10.90
2018-11-03T12:16:25.980Z,11.03
2018-11-03T12:18:55.159Z,10.50
2018-11-03T12:21:24.294Z,10.00
2018-11-03T12:23:53.351Z,10.77
2018-11-03T12:26:22.567Z,10.87
2018-11-03T12:28:51.622Z,8.77
2018-11-03T12:31:20.642Z,8.20
2018-11-03T12:33:49.702Z,7.93
2018-11-03T12:36:18.848Z,8.67
2018-11-03T12:38:47.998Z,8.00
2018-11-03T12:41:17.115Z,8.60
2018-11-03T12:43:46.640Z,7.50
2018-11-03T12:46:15.873Z,7.30
2018-11-03T12:48:44.848Z,6.67
2018-11-03T12:51:13.882Z,6.20
2018-11-03T12:53:42.937Z,7.00
2018-11-03T12:56:12.036Z,5.60
2018-11-03T12:58:41.296Z,6.73
2018-11-03T13:01:10.437Z,6.17
2018-11-03T13:03:39.486Z,6.10
2018-11-03T13:06:08.619Z,6.27
2018-11-03T13:08:37.781Z,6.73
2018-11-03T13:11:06.838Z,7.03
2018-11-03T13:13:35.870Z,6.67
2018-11-03T13:16:05.114Z,6.10
2018-11-03T13:18:34.159Z,6.20
2018-11-03T13:21:03.361Z,6.87
2018-11-03T13:23:32.393Z,7.60
2018-11-03T13:26:01.466Z,7.80
2018-11-03T13:28:30.567Z,7.87
2018-11-03T13:30:59.632Z,7.13
2018-11-03T13:33:28.734Z,7.73
2018-11-03T13:35:57.853Z,7.33
2018-11-03T13:38:26.874Z,7.40
2018-11-03T13:40:56.054Z,6.83
2018-11-03T13:43:25.123Z,7.80
2018-11-03T13:45:54.229Z,7.70
2018-11-03T13:48:23.369Z,7.10
2018-11-03T13:50:52.425Z,7.20
2018-11-03T13:53:21.493Z,6.80
2018-11-03T13:55:50.601Z,6.90
2018-11-03T13:58:19.603Z,6.33
2018-11-03T14:00:48.628Z,6.83
2018-11-03T14:03:17.670Z,5.10
2018-11-03T14:05:46.764Z,4.67
2018-11-03T14:08:15.865Z,4.13
2018-11-03T14:10:44.962Z,4.17
2018-11-03T14:13:14.162Z,4.10
2018-11-03T14:15:43.315Z,3.83
2018-11-03T14:18:12.328Z,4.37
2018-11-03T14:20:41.463Z,4.47
2018-11-03T14:23:10.639Z,5.03
2018-11-03T14:25:39.657Z,4.37
2018-11-03T14:28:08.709Z,4.57
2018-11-03T14:30:37.717Z,4.67
2018-11-03T14:33:06.949Z,4.57
2018-11-03T14:35:36.029Z,4.63
2018-11-03T14:38:05.159Z,5.00
2018-11-03T14:40:34.198Z,4.87
2018-11-03T14:43:03.277Z,4.10
2018-11-03T14:45:32.448Z,5.70
2018-11-03T14:48:01.466Z,3.93
2018-11-03T14:50:32.031Z,3.90
2018-11-03T14:53:01.127Z,3.60
2018-11-03T14:55:30.213Z,3.97
2018-11-03T14:57:59.322Z,3.60
2018-11-03T15:00:28.326Z,3.50
2018-11-03T15:02:57.405Z,3.30
2018-11-03T15:05:26.538Z,3.33
2018-11-03T15:07:55.569Z,3.90
2018-11-03T15:10:24.672Z,3.07
2018-11-03T15:12:53.774Z,3.57
2018-11-03T15:15:22.782Z,3.67
2018-11-03T15:17:51.809Z,4.10
2018-11-03T15:20:20.953Z,3.87
2018-11-03T15:22:50.030Z,3.93
2018-11-03T15:25:19.155Z,3.80
2018-11-03T15:27:48.218Z,3.90
2018-11-03T15:30:17.210Z,4.07
2018-11-03T15:32:46.199Z,4.00
2018-11-03T15:35:15.208Z,4.70
2018-11-03T15:37:44.238Z,4.27
2018-11-03T15:40:14.608Z,4.70
2018-11-03T15:42:44.240Z,4.90
2018-11-03T15:45:15.282Z,5.50
2018-11-03T15:47:44.854Z,5.03
2018-11-03T15:50:14.807Z,5.60
2018-11-03T15:52:44.698Z,5.93
2018-11-03T15:55:13.931Z,6.80
2018-11-03T15:57:43.310Z,6.40
2018-11-03T16:00:15.146Z,6.30
2018-11-03T16:02:44.392Z,6.13
2018-11-03T16:05:13.659Z,6.63
2018-11-03T16:07:43.287Z,6.87
2018-11-03T16:10:12.450Z,6.50
2018-11-03T16:12:41.579Z,6.57
2018-11-03T16:15:11.800Z,6.50
2018-11-03T16:17:41.712Z,7.33
2018-11-03T16:20:12.184Z,7.07
2018-11-03T16:22:41.595Z,7.50
2018-11-03T16:25:10.931Z,7.33
2018-11-03T16:27:40.660Z,7.60
2018-11-03T16:30:13.024Z,7.60
2018-11-03T16:32:42.317Z,8.00
2018-11-03T16:35:11.256Z,9.00
2018-11-03T16:37:40.710Z,7.70
2018-11-03T16:40:11.768Z,8.30
2018-11-03T16:42:41.380Z,7.67
2018-11-03T16:45:12.085Z,8.00
2018-11-03T16:47:41.588Z,8.50
2018-11-03T16:50:11.829Z,9.13
2018-11-03T16:52:41.177Z,9.93
2018-11-03T16:55:11.304Z,9.60
2018-11-03T16:57:40.443Z,9.17
2018-11-03T17:00:11.821Z,8.60
2018-11-03T17:02:41.267Z,9.90
2018-11-03T17:05:11.603Z,9.17
2018-11-03T17:07:40.749Z,9.03
2018-11-03T17:10:12.324Z,9.77
2018-11-03T17:12:43.047Z,10.73
2018-11-03T17:15:12.507Z,10.37
2018-11-03T17:17:41.629Z,10.07
2018-11-03T17:20:11.187Z,10.93
2018-11-03T17:22:40.260Z,11.03
2018-11-03T17:25:10.651Z,11.63
2018-11-03T17:27:39.814Z,11.57
2018-11-03T17:30:11.178Z,11.40
2018-11-03T17:32:40.331Z,12.30
2018-11-03T17:35:09.663Z,12.43
2018-11-03T17:37:38.812Z,11.90
2018-11-03T17:40:08.870Z,12.07
2018-11-03T17:42:37.873Z,12.47
2018-11-03T17:45:08.398Z,12.07
2018-11-03T17:47:37.802Z,12.23
2018-11-03T17:50:08.251Z,11.97
2018-11-03T17:52:37.336Z,12.77
2018-11-03T17:55:07.034Z,12.63
2018-11-03T17:57:36.834Z,12.87
2018-11-03T18:00:09.406Z,13.53
2018-11-03T18:02:38.317Z,12.87
2018-11-03T18:05:07.330Z,12.60
2018-11-03T18:07:37.437Z,11.90
2018-11-03T18:10:07.886Z,12.73
2018-11-03T18:12:36.950Z,13.53
2018-11-03T18:15:06.876Z,14.63
2018-11-03T18:17:36.008Z,14.40
2018-11-03T18:20:05.910Z,14.00
2018-11-03T18:22:34.984Z,14.77
2018-11-03T18:25:04.459Z,14.53
2018-11-03T18:27:33.578Z,14.90
2018-11-03T18:30:02.775Z,14.77
2018-11-03T18:32:31.775Z,15.47
2018-11-03T18:35:00.887Z,15.03
2018-11-03T18:37:29.949Z,14.43
2018-11-03T18:39:59.211Z,14.33
2018-11-03T18:42:28.205Z,15.13
2018-11-03T18:44:57.238Z,14.70
2018-11-03T18:47:26.358Z,16.03
2018-11-03T18:49:55.400Z,16.70
2018-11-03T18:52:24.443Z,16.87
2018-11-03T18:54:53.474Z,16.17
2018-11-03T18:57:22.667Z,15.17
2018-11-03T18:59:51.797Z,16.17
2018-11-03T19:02:20.826Z,15.93
2018-11-03T19:04:49.940Z,16.40
2018-11-03T19:07:19.038Z,16.00
2018-11-03T19:09:48.122Z,16.17
2018-11-03T19:12:17.274Z,16.97
2018-11-03T19:14:46.374Z,18.20
2018-11-03T19:17:15.617Z,17.47
2018-11-03T19:19:44.616Z,19.07
2018-11-03T19:22:13.641Z,17.47
2018-11-03T19:24:42.828Z,17.67
2018-11-03T19:27:11.920Z,18.03
2018-11-03T19:29:41.047Z,17.57
2018-11-03T19:32:10.104Z,18.47
2018-11-03T19:34:39.158Z,19.63
2018-11-03T19:37:08.269Z,21.50
2018-11-03T19:39:37.296Z,20.93
2018-11-03T19:42:06.386Z,21.90
2018-11-03T19:44:35.433Z,21.93
2018-11-03T19:47:04.768Z,21.87
2018-11-03T19:49:33.837Z,20.57
2018-11-03T19:52:02.856Z,20.27
2018-11-03T19:54:31.914Z,23.77
2018-11-03T19:57:01.054Z,22.87
2018-11-03T19:59:30.139Z,21.87
2018-11-03T20:01:59.199Z,21.67
2018-11-03T20:04:28.245Z,23.67
2018-11-03T20:06:57.291Z,26.23
2018-11-03T20:09:26.364Z,23.37
2018-11-03T20:11:55.386Z,23.07
2018-11-03T20:14:24.514Z,22.30
2018-11-03T20:16:53.598Z,22.20
2018-11-03T20:19:22.726Z,23.93
2018-11-03T20:21:51.849Z,22.80
2018-11-03T20:24:20.950Z,23.47
2018-11-03T20:26:50.066Z,23.93
2018-11-03T20:29:19.145Z,22.37
2018-11-03T20:31:48.222Z,24.57
2018-11-03T20:34:17.353Z,23.17
2018-11-03T20:36:46.431Z,23.23
2018-11-03T20:39:15.557Z,23.43
2018-11-03T20:41:44.572Z,22.27
2018-11-03T20:44:13.797Z,21.50
2018-11-03T20:46:42.898Z,23.20
2018-11-03T20:49:13.072Z,24.93
2018-11-03T20:51:42.108Z,26.07
2018-11-03T20:54:11.186Z,26.33
2018-11-03T20:56:40.355Z,24.70
2018-11-03T20:59:09.446Z,24.70
2018-11-03T21:01:38.468Z,25.70
2018-11-03T21:04:07.667Z,28.33
2018-11-03T21:06:36.722Z,28.20
2018-11-03T21:09:07.371Z,30.30
2018-11-03T21:11:36.473Z,30.63
2018-11-03T21:14:05.695Z,27.63
2018-11-03T21:16:35.231Z,29.70
2018-11-03T21:19:04.433Z,29.43
2018-11-03T21:21:33.502Z,27.40
2018-11-03T21:24:02.747Z,27.57
2018-11-03T21:26:31.700Z,27.57
2018-11-03T21:29:00.806Z,28.10
2018-11-03T21:31:29.904Z,26.67
2018-11-03T21:33:59.018Z,30.40
2018-11-03T21:36:27.988Z,28.17
2018-11-03T21:38:57.164Z,28.23
2018-11-03T21:41:26.316Z,27.67
2018-11-03T21:43:55.332Z,28.33
2018-11-03T21:46:24.488Z,28.60
2018-11-03T21:48:53.556Z,28.30
2018-11-03T21:51:22.664Z,29.43
2018-11-03T21:53:51.754Z,28.10
2018-11-03T21:56:20.824Z,27.20
2018-11-03T21:58:49.839Z,26.73
2018-11-03T22:01:18.942Z,28.30
2018-11-03T22:03:47.975Z,25.37
2018-11-03T22:06:17.045Z,27.97
2018-11-03T22:08:46.114Z,27.27
2018-11-03T22:11:15.148Z,26.87
2018-11-03T22:13:44.594Z,27.60
2018-11-03T22:16:13.727Z,25.93
2018-11-03T22:18:42.926Z,27.07
2018-11-03T22:21:11.986Z,26.97
2018-11-03T22:23:40.974Z,26.27
2018-11-03T22:26:09.996Z,26.90
2018-11-03T22:28:39.054Z,26.93
2018-11-03T22:31:08.034Z,27.80
2018-11-03T22:33:37.058Z,25.30
2018-11-03T22:36:06.202Z,27.03
2018-11-03T22:38:35.242Z,26.70
2018-11-03T22:41:04.538Z,28.17
2018-11-03T22:43:33.550Z,27.77
2018-11-03T22:52:59.668Z,27.70
2018-11-03T22:55:28.700Z,28.63
2018-11-03T22:57:57.886Z,30.53
2018-11-03T23:00:26.888Z,28.57
2018-11-03T23:02:55.993Z,28.57
2018-11-03T23:05:25.123Z,29.20
2018-11-03T23:07:54.318Z,29.10
2018-11-03T23:10:23.289Z,29.60
2018-11-03T23:12:52.338Z,28.10
2018-11-03T23:15:21.361Z,28.30
2018-11-03T23:17:50.409Z,28.00
2018-11-03T23:20:19.479Z,29.13
2018-11-03T23:22:48.484Z,29.87
2018-11-03T23:25:17.491Z,29.30
2018-11-03T23:27:46.520Z,29.63
2018-11-03T23:31:19.061Z,29.53
2018-11-03T23:33:49.168Z,30.43
2018-11-03T23:36:18.253Z,31.77
2018-11-03T23:38:47.309Z,30.03
2018-11-03T23:41:16.401Z,31.10
2018-11-03T23:43:45.597Z,28.20
2018-11-03T23:46:14.766Z,29.10
2018-11-03T23:48:44.185Z,28.83
2018-11-03T23:51:13.193Z,28.37
2018-11-03T23:53:42.281Z,28.53
2018-11-03T23:56:11.309Z,28.83
2018-11-03T23:58:40.370Z,28.10
